M/V Oriole — WDE6982 — position and weather

sailwx.info

Track history (hours):
 
Tides and Currents Weather Stations Pressure Air Temp Water Temp Dewpoint Dewpoint Depression Visibility Wind Speed Wind Dir Waves Ship Positions

M/V Oriole

Owner: NATIVE SON INC., ST. THOMAS, VI. More information available from US FCC via Universal Licensing System and Coast Guard Vessel Documentation Center.

Last reported at 2017-Apr-27 21:50 UTC. Time now 2017-Apr-28 12:13 UTC.
Position N 18°24' W 064°38'.

Length 25 m.

Type: Passenger vessel. MMSI: 366755670.

Date/timePositionNaut miles runAvg speedWind from/ knotsBaromVisibWave heightAir tempDewpointWater temp
2017-Apr-27 21:50N 18°24' W 064°38'514.2
2017-Apr-27 21:30N 18°23' W 064°43'8 4.5
2017-Apr-27 19:46N 18°20' W 064°50'411.9
2017-Apr-27 19:28N 18°22' W 064°47'911.0
2017-Apr-27 18:38N 18°24' W 064°38'324.6
2017-Apr-27 18:30N 18°23' W 064°41'1 0.3
2017-Apr-27 13:57N 18°23' W 064°42'4 0.3
2017-Apr-26 22:23N 18°24' W 064°38'614.1
2017-Apr-26 21:59N 18°23' W 064°44'7 8.5
2017-Apr-26 21:13N 18°20' W 064°50'2 9.3
2017-Apr-26 21:00N 18°20' W 064°48'0 0.0
2017-Apr-26 20:29N 18°20' W 064°48'611.8
2017-Apr-26 19:58N 18°23' W 064°42'4 9.3
2017-Apr-26 19:29N 18°22' W 064°47'4 1.8
2017-Apr-26 17:20N 18°20' W 064°50'2 6.3
2017-Apr-26 16:59N 18°20' W 064°48'611.1
2017-Apr-26 16:25N 18°23' W 064°42'613.3
2017-Apr-26 16:00N 18°21' W 064°48'2 0.9
2017-Apr-26 13:09N 18°20' W 064°50'2 7.2
2017-Apr-26 12:51N 18°20' W 064°48'617.5
2017-Apr-26 12:30N 18°23' W 064°42'815.0
2017-Apr-26 12:00N 18°20' W 064°50'2 3.9
2017-Apr-26 11:29N 18°20' W 064°48'0 0.8
2017-Apr-26 10:59N 18°20' W 064°48'612.2
2017-Apr-26 10:28N 18°23' W 064°42'4 0.3
2017-Apr-25 22:10N 18°24' W 064°38'412.1
2017-Apr-25 21:50N 18°23' W 064°42'823.0
2017-Apr-25 21:30N 18°20' W 064°50'1 0.8
2017-Apr-25 20:52N 18°20' W 064°50'2 5.2
2017-Apr-25 20:27N 18°20' W 064°48'613.0
2017-Apr-25 19:59N 18°23' W 064°42'8 3.1
2017-Apr-25 17:19N 18°20' W 064°50'2 5.6
2017-Apr-25 16:54N 18°20' W 064°48'611.9
2017-Apr-25 16:23N 18°23' W 064°42'410.3
2017-Apr-25 16:00N 18°22' W 064°46'4 1.6
2017-Apr-25 13:22N 18°20' W 064°50'2 5.5
2017-Apr-25 12:59N 18°20' W 064°48'611.9
2017-Apr-25 12:28N 18°23' W 064°42'810.0
2017-Apr-25 11:38N 18°20' W 064°50'2 4.9
2017-Apr-25 11:11N 18°20' W 064°48'0 0.8
2017-Apr-25 11:00N 18°20' W 064°48'612.1
2017-Apr-25 10:29N 18°23' W 064°42'0 0.0
2017-Apr-24 18:31N 18°23' W 064°42'0 0.0
2017-Apr-24 18:30N 18°23' W 064°42'8 1.8
2017-Apr-24 14:20N 18°20' W 064°49'11 0.5
2017-Apr-23 14:54N 18°23' W 064°39'817.2
2017-Apr-23 14:25N 18°21' W 064°47'2 0.6
2017-Apr-23 11:35N 18°20' W 064°48'0 2.7
2017-Apr-23 11:27N 18°20' W 064°48'10 0.6
2017-Apr-22 17:29N 18°24' W 064°38'4 6.9
2017-Apr-22 16:52N 18°23' W 064°42'0 0.0
2017-Apr-22 16:29N 18°23' W 064°42'7 3.3
2017-Apr-22 14:17N 18°20' W 064°49'11 0.7
2017-Apr-21 22:17N 18°24' W 064°38'411.4
2017-Apr-21 21:55N 18°23' W 064°42'818.4
2017-Apr-21 21:29N 18°20' W 064°50'0 0.8
2017-Apr-21 21:00N 18°20' W 064°50'2 3.3
2017-Apr-21 20:27N 18°20' W 064°48'612.3
2017-Apr-21 19:58N 18°23' W 064°42'510.9
2017-Apr-21 19:30N 18°21' W 064°47'3 1.3
2017-Apr-21 17:30N 18°20' W 064°49'2 3.0
2017-Apr-21 16:57N 18°20' W 064°48'611.4
2017-Apr-21 16:25N 18°23' W 064°42'613.4
2017-Apr-21 15:59N 18°21' W 064°48'1 0.4
2017-Apr-21 13:46N 18°20' W 064°48'0 0.8
2017-Apr-21 13:28N 18°20' W 064°48'613.4
2017-Apr-21 13:00N 18°23' W 064°42'918.8
2017-Apr-21 12:31N 18°20' W 064°51'3 4.4
2017-Apr-21 11:48N 18°20' W 064°48'0 0.0
2017-Apr-21 11:30N 18°20' W 064°48'4 7.2
2017-Apr-21 10:58N 18°23' W 064°45'2 4.8
2017-Apr-21 10:27N 18°23' W 064°42'3 0.3
2017-Apr-20 22:23N 18°23' W 064°39'4 9.8
2017-Apr-20 21:59N 18°23' W 064°43'8 7.1
2017-Apr-20 20:52N 18°20' W 064°50'3 7.2
2017-Apr-20 20:30N 18°20' W 064°48'6 9.2
2017-Apr-20 19:51N 18°23' W 064°42'514.0
2017-Apr-20 19:29N 18°22' W 064°47'3 1.4
2017-Apr-20 17:20N 18°20' W 064°50'2 6.3
2017-Apr-20 17:00N 18°20' W 064°48'612.3
2017-Apr-20 16:30N 18°23' W 064°42'611.1
2017-Apr-20 16:00N 18°21' W 064°48'3 1.1
2017-Apr-20 13:43N 18°20' W 064°50'2 8.7
2017-Apr-20 13:28N 18°20' W 064°48'1 1.5
2017-Apr-20 13:00N 18°21' W 064°48'5 9.5
2017-Apr-20 12:30N 18°23' W 064°43'815.2
2017-Apr-20 11:58N 18°20' W 064°51'3 4.8
2017-Apr-20 11:19N 18°20' W 064°48'2 7.5
2017-Apr-20 11:00N 18°22' W 064°46'611.9
2017-Apr-20 10:30N 18°23' W 064°40'2 0.2
2017-Apr-19 22:15N 18°24' W 064°38'412.9
2017-Apr-19 21:56N 18°23' W 064°42'714.3
2017-Apr-19 21:25N 18°20' W 064°49'2 4.3
2017-Apr-19 21:00N 18°20' W 064°51'3 5.2
2017-Apr-19 20:24N 18°20' W 064°48'611.9
2017-Apr-19 19:53N 18°23' W 064°42'411.5
2017-Apr-19 19:30N 18°22' W 064°47'5 9.6
2017-Apr-19 19:00N 18°20' W 064°51'3 1.6
2017-Apr-19 17:02N 18°20' W 064°48'0 0.0
2017-Apr-19 16:53N 18°20' W 064°48'614.3
2017-Apr-19 16:27N 18°23' W 064°42'8 2.5
2017-Apr-19 13:24N 18°20' W 064°49'2 4.0
2017-Apr-19 13:00N 18°20' W 064°48'612.2
2017-Apr-19 12:30N 18°23' W 064°42'8 8.3
2017-Apr-19 11:33N 18°20' W 064°50'121.4
2017-Apr-19 11:30N 18°20' W 064°49'1 2.6
2017-Apr-19 11:00N 18°21' W 064°48'6 9.6
2017-Apr-19 10:25N 18°23' W 064°42'4 0.3
2017-Apr-18 22:20N 18°23' W 064°38'410.3
2017-Apr-18 21:55N 18°23' W 064°43'7 6.4
2017-Apr-18 20:48N 18°20' W 064°50'2 4.3
2017-Apr-18 20:22N 18°20' W 064°48'612.1
2017-Apr-18 19:52N 18°23' W 064°42'8 3.2
2017-Apr-18 17:17N 18°20' W 064°50'2 6.7
2017-Apr-18 16:56N 18°20' W 064°48'611.3
2017-Apr-18 16:24N 18°23' W 064°42'8 2.8
2017-Apr-18 13:23N 18°20' W 064°50'510.0
2017-Apr-18 12:56N 18°22' W 064°46'2 4.8
2017-Apr-18 12:28N 18°23' W 064°44'6 9.7
2017-Apr-18 11:50N 18°20' W 064°50'2 4.3
2017-Apr-18 11:22N 18°20' W 064°48'615.5
2017-Apr-18 10:59N 18°23' W 064°42'0 0.2
2017-Apr-18 10:29N 18°23' W 064°42'  
Track history (hours):
 
Tides and Currents Weather Stations Pressure Air Temp Water Temp Dewpoint Dewpoint Depression Visibility Wind Speed Wind Dir Waves Ship Positions

M/V Oriole

Owner: NATIVE SON INC., ST. THOMAS, VI. More information available from US FCC via Universal Licensing System and Coast Guard Vessel Documentation Center.

Last reported at 2017-Apr-27 21:50 UTC. Time now 2017-Apr-28 12:13 UTC.
Position N 18°24' W 064°38'.

Length 25 m.

Type: Passenger vessel. MMSI: 366755670.

Date/timePositionNaut miles runAvg speedWind from/ knotsBaromVisibWave heightAir tempDewpointWater temp
2017-Apr-27 21:50N 18°24' W 064°38'514.2
2017-Apr-27 21:30N 18°23' W 064°43'8 4.5
2017-Apr-27 19:46N 18°20' W 064°50'411.9
2017-Apr-27 19:28N 18°22' W 064°47'911.0
2017-Apr-27 18:38N 18°24' W 064°38'324.6
2017-Apr-27 18:30N 18°23' W 064°41'1 0.3
2017-Apr-27 13:57N 18°23' W 064°42'4 0.3
2017-Apr-26 22:23N 18°24' W 064°38'614.1
2017-Apr-26 21:59N 18°23' W 064°44'7 8.5
2017-Apr-26 21:13N 18°20' W 064°50'2 9.3
2017-Apr-26 21:00N 18°20' W 064°48'0 0.0
2017-Apr-26 20:29N 18°20' W 064°48'611.8
2017-Apr-26 19:58N 18°23' W 064°42'4 9.3
2017-Apr-26 19:29N 18°22' W 064°47'4 1.8
2017-Apr-26 17:20N 18°20' W 064°50'2 6.3
2017-Apr-26 16:59N 18°20' W 064°48'611.1
2017-Apr-26 16:25N 18°23' W 064°42'613.3
2017-Apr-26 16:00N 18°21' W 064°48'2 0.9
2017-Apr-26 13:09N 18°20' W 064°50'2 7.2
2017-Apr-26 12:51N 18°20' W 064°48'617.5
2017-Apr-26 12:30N 18°23' W 064°42'815.0
2017-Apr-26 12:00N 18°20' W 064°50'2 3.9
2017-Apr-26 11:29N 18°20' W 064°48'0 0.8
2017-Apr-26 10:59N 18°20' W 064°48'612.2
2017-Apr-26 10:28N 18°23' W 064°42'4 0.3
2017-Apr-25 22:10N 18°24' W 064°38'412.1
2017-Apr-25 21:50N 18°23' W 064°42'823.0
2017-Apr-25 21:30N 18°20' W 064°50'1 0.8
2017-Apr-25 20:52N 18°20' W 064°50'2 5.2
2017-Apr-25 20:27N 18°20' W 064°48'613.0
2017-Apr-25 19:59N 18°23' W 064°42'8 3.1
2017-Apr-25 17:19N 18°20' W 064°50'2 5.6
2017-Apr-25 16:54N 18°20' W 064°48'611.9
2017-Apr-25 16:23N 18°23' W 064°42'410.3
2017-Apr-25 16:00N 18°22' W 064°46'4 1.6
2017-Apr-25 13:22N 18°20' W 064°50'2 5.5
2017-Apr-25 12:59N 18°20' W 064°48'611.9
2017-Apr-25 12:28N 18°23' W 064°42'810.0
2017-Apr-25 11:38N 18°20' W 064°50'2 4.9
2017-Apr-25 11:11N 18°20' W 064°48'0 0.8
2017-Apr-25 11:00N 18°20' W 064°48'612.1
2017-Apr-25 10:29N 18°23' W 064°42'0 0.0
2017-Apr-24 18:31N 18°23' W 064°42'0 0.0
2017-Apr-24 18:30N 18°23' W 064°42'8 1.8
2017-Apr-24 14:20N 18°20' W 064°49'11 0.5
2017-Apr-23 14:54N 18°23' W 064°39'817.2
2017-Apr-23 14:25N 18°21' W 064°47'2 0.6
2017-Apr-23 11:35N 18°20' W 064°48'0 2.7
2017-Apr-23 11:27N 18°20' W 064°48'10 0.6
2017-Apr-22 17:29N 18°24' W 064°38'4 6.9
2017-Apr-22 16:52N 18°23' W 064°42'0 0.0
2017-Apr-22 16:29N 18°23' W 064°42'7 3.3
2017-Apr-22 14:17N 18°20' W 064°49'11 0.7
2017-Apr-21 22:17N 18°24' W 064°38'411.4
2017-Apr-21 21:55N 18°23' W 064°42'818.4
2017-Apr-21 21:29N 18°20' W 064°50'0 0.8
2017-Apr-21 21:00N 18°20' W 064°50'2 3.3
2017-Apr-21 20:27N 18°20' W 064°48'612.3
2017-Apr-21 19:58N 18°23' W 064°42'510.9
2017-Apr-21 19:30N 18°21' W 064°47'3 1.3
2017-Apr-21 17:30N 18°20' W 064°49'2 3.0
2017-Apr-21 16:57N 18°20' W 064°48'611.4
2017-Apr-21 16:25N 18°23' W 064°42'613.4
2017-Apr-21 15:59N 18°21' W 064°48'1 0.4
2017-Apr-21 13:46N 18°20' W 064°48'0 0.8
2017-Apr-21 13:28N 18°20' W 064°48'613.4
2017-Apr-21 13:00N 18°23' W 064°42'918.8
2017-Apr-21 12:31N 18°20' W 064°51'3 4.4
2017-Apr-21 11:48N 18°20' W 064°48'0 0.0
2017-Apr-21 11:30N 18°20' W 064°48'4 7.2
2017-Apr-21 10:58N 18°23' W 064°45'2 4.8
2017-Apr-21 10:27N 18°23' W 064°42'3 0.3
2017-Apr-20 22:23N 18°23' W 064°39'4 9.8
2017-Apr-20 21:59N 18°23' W 064°43'8 7.1
2017-Apr-20 20:52N 18°20' W 064°50'3 7.2
2017-Apr-20 20:30N 18°20' W 064°48'6 9.2
2017-Apr-20 19:51N 18°23' W 064°42'514.0
2017-Apr-20 19:29N 18°22' W 064°47'3 1.4
2017-Apr-20 17:20N 18°20' W 064°50'2 6.3
2017-Apr-20 17:00N 18°20' W 064°48'612.3
2017-Apr-20 16:30N 18°23' W 064°42'611.1
2017-Apr-20 16:00N 18°21' W 064°48'3 1.1
2017-Apr-20 13:43N 18°20' W 064°50'2 8.7
2017-Apr-20 13:28N 18°20' W 064°48'1 1.5
2017-Apr-20 13:00N 18°21' W 064°48'5 9.5
2017-Apr-20 12:30N 18°23' W 064°43'815.2
2017-Apr-20 11:58N 18°20' W 064°51'3 4.8
2017-Apr-20 11:19N 18°20' W 064°48'2 7.5
2017-Apr-20 11:00N 18°22' W 064°46'611.9
2017-Apr-20 10:30N 18°23' W 064°40'2 0.2
2017-Apr-19 22:15N 18°24' W 064°38'412.9
2017-Apr-19 21:56N 18°23' W 064°42'714.3
2017-Apr-19 21:25N 18°20' W 064°49'2 4.3
2017-Apr-19 21:00N 18°20' W 064°51'3 5.2
2017-Apr-19 20:24N 18°20' W 064°48'611.9
2017-Apr-19 19:53N 18°23' W 064°42'411.5
2017-Apr-19 19:30N 18°22' W 064°47'5 9.6
2017-Apr-19 19:00N 18°20' W 064°51'3 1.6
2017-Apr-19 17:02N 18°20' W 064°48'0 0.0
2017-Apr-19 16:53N 18°20' W 064°48'614.3
2017-Apr-19 16:27N 18°23' W 064°42'8 2.5
2017-Apr-19 13:24N 18°20' W 064°49'2 4.0
2017-Apr-19 13:00N 18°20' W 064°48'612.2
2017-Apr-19 12:30N 18°23' W 064°42'8 8.3
2017-Apr-19 11:33N 18°20' W 064°50'121.4
2017-Apr-19 11:30N 18°20' W 064°49'1 2.6
2017-Apr-19 11:00N 18°21' W 064°48'6 9.6
2017-Apr-19 10:25N 18°23' W 064°42'4 0.3
2017-Apr-18 22:20N 18°23' W 064°38'410.3
2017-Apr-18 21:55N 18°23' W 064°43'7 6.4
2017-Apr-18 20:48N 18°20' W 064°50'2 4.3
2017-Apr-18 20:22N 18°20' W 064°48'612.1
2017-Apr-18 19:52N 18°23' W 064°42'8 3.2
2017-Apr-18 17:17N 18°20' W 064°50'2 6.7
2017-Apr-18 16:56N 18°20' W 064°48'611.3
2017-Apr-18 16:24N 18°23' W 064°42'8 2.8
2017-Apr-18 13:23N 18°20' W 064°50'510.0
2017-Apr-18 12:56N 18°22' W 064°46'2 4.8
2017-Apr-18 12:28N 18°23' W 064°44'6 9.7
2017-Apr-18 11:50N 18°20' W 064°50'2 4.3
2017-Apr-18 11:22N 18°20' W 064°48'615.5
2017-Apr-18 10:59N 18°23' W 064°42'0 0.2
2017-Apr-18 10:29N 18°23' W 064°42'  

Dump ship's entire track history